AZV7358 UUWW-LDDU
Flight info
| Callsign | AZV7358 |
|---|---|
| Flight time | N/A |
| Altitude | 36000 |
| Route | UUWW SOTO3D SOTOG L736 GODBI L856 OKR DCT VEBAL L196 SPL L607 SIPAL DCT SIPAL SIPA1A LDDU |
| Aircraft | B752/M-SDE3FGHIM3RWXY/LB1 |
Departure
| Time | N/A |
|---|---|
| Airport | Vnukovo International Airport (UUWW) |
Arrival
| Time | 2026-05-05 20:58 |
|---|---|
| Airport | Dubrovnik Ruđer Bošković Airport (LDDU) |
| Time | Latitude | Longitude | Altitude | Speed | Heading |
|---|---|---|---|---|---|
| 2026-05-05 20:56 | 42.60127 | 18.16748 | 1849 ft | 127 kts | 116° |
| 2026-05-05 20:56 | 42.59707 | 18.17813 | 1679 ft | 127 kts | 116° |
| 2026-05-05 20:56 | 42.59291 | 18.18863 | 1511 ft | 127 kts | 116° |
| 2026-05-05 20:57 | 42.58872 | 18.19923 | 1340 ft | 126 kts | 116° |
| 2026-05-05 20:57 | 42.58461 | 18.20962 | 1172 ft | 126 kts | 117° |
| 2026-05-05 20:57 | 42.58043 | 18.22010 | 997 ft | 124 kts | 117° |
| 2026-05-05 20:57 | 42.57635 | 18.23036 | 811 ft | 120 kts | 116° |
| 2026-05-05 20:58 | 42.57379 | 18.23696 | 728 ft | 116 kts | 116° |
| 2026-05-05 20:58 | 42.56874 | 18.24983 | 554 ft | 118 kts | 116° |
| 2026-05-05 20:58 | 42.56613 | 18.25630 | 527 ft | 113 kts | 115° |
| 2026-05-05 20:58 | 42.56269 | 18.26497 | 525 ft | 49 kts | 118° |
| 2026-05-05 20:59 | 42.56139 | 18.26825 | 520 ft | 34 kts | 118° |
| 2026-05-05 20:59 | 42.56035 | 18.27088 | 514 ft | 28 kts | 118° |
| 2026-05-05 20:59 | 42.55954 | 18.27279 | 510 ft | 20 kts | 134° |
| 2026-05-05 20:59 | 42.55847 | 18.27335 | 508 ft | 12 kts | 173° |
| 2026-05-05 21:00 | 42.55776 | 18.27301 | 508 ft | 9 kts | 241° |
| 2026-05-05 21:00 | 42.55784 | 18.27234 | 509 ft | 6 kts | 296° |
| 2026-05-05 21:00 | 42.55802 | 18.27191 | 510 ft | 4 kts | 300° |
| 2026-05-05 21:00 | 42.55815 | 18.27158 | 511 ft | 3 kts | 298° |
| 2026-05-05 21:01 | 42.55829 | 18.27125 | 512 ft | 4 kts | 298° |
| 2026-05-05 21:01 | 42.55842 | 18.27091 | 513 ft | 4 kts | 298° |
| 2026-05-05 21:01 | 42.55856 | 18.27057 | 513 ft | 4 kts | 298° |
| 2026-05-05 21:01 | 42.55870 | 18.27022 | 514 ft | 4 kts | 298° |
| 2026-05-05 21:02 | 42.55884 | 18.26987 | 515 ft | 5 kts | 298° |
| 2026-05-05 21:02 | 42.55905 | 18.26933 | 516 ft | 7 kts | 298° |
| 2026-05-05 21:02 | 42.55934 | 18.26861 | 517 ft | 9 kts | 298° |
| 2026-05-05 21:02 | 42.55968 | 18.26776 | 519 ft | 11 kts | 298° |
| 2026-05-05 21:03 | 42.56010 | 18.26670 | 521 ft | 13 kts | 298° |
| 2026-05-05 21:03 | 42.56049 | 18.26571 | 523 ft | 10 kts | 298° |
| 2026-05-05 21:03 | 42.56079 | 18.26494 | 524 ft | 7 kts | 297° |
| 2026-05-05 21:03 | 42.56095 | 18.26454 | 524 ft | 6 kts | 298° |
| 2026-05-05 21:04 | 42.56130 | 18.26366 | 525 ft | 8 kts | 298° |
| 2026-05-05 21:04 | 42.56147 | 18.26323 | 526 ft | 6 kts | 298° |
| 2026-05-05 21:04 | 42.56171 | 18.26264 | 526 ft | 3 kts | 298° |
| 2026-05-05 21:04 | 42.56171 | 18.26249 | 526 ft | 1 kts | 249° |
| 2026-05-05 21:05 | 42.56154 | 18.26228 | 526 ft | 2 kts | 213° |
| 2026-05-05 21:05 | 42.56138 | 18.26214 | 526 ft | 0 kts | 211° |
| 2026-05-05 21:05 | 42.56137 | 18.26213 | 526 ft | 0 kts | 211° |
| 2026-05-05 21:05 | 42.56133 | 18.26210 | 526 ft | 0 kts | 211° |
| 2026-05-05 21:06 | 42.56133 | 18.26209 | 526 ft | 0 kts | 211° |